Time;durP1;ratioP1;P1;durP2;ratioP2;P2;SDS_P1;SDS_P2;PMS_P1;PMS_P2;Temp;Humidity;BMP_temperature;BMP_pressure;BME280_temperature;BME280_humidity;BME280_pressure;Samples;Min_cycle;Max_cycle;Signal;HPM_P1;HPM_P2
2023/04/27 00:00:26;;;;;;;1.65;0.60;;;2.60;99.90;;;;;;4950093;29;20032;-83
2023/04/27 00:02:52;;;;;;;2.63;0.80;;;2.60;99.90;;;;;;4962942;28;20069;-83
2023/04/27 00:05:18;;;;;;;1.70;0.52;;;2.50;99.90;;;;;;4954388;28;20055;-84
2023/04/27 00:07:44;;;;;;;1.15;0.40;;;2.50;99.90;;;;;;4959740;28;20122;-82
2023/04/27 00:10:10;;;;;;;1.25;0.57;;;2.60;99.90;;;;;;4969249;28;20122;-90
2023/04/27 00:12:36;;;;;;;2.00;0.68;;;2.50;99.90;;;;;;4955719;28;20086;-90
2023/04/27 00:15:03;;;;;;;1.70;0.55;;;2.50;99.90;;;;;;4952601;29;20035;-84
2023/04/27 00:17:28;;;;;;;2.20;0.55;;;2.40;99.90;;;;;;4953723;28;20039;-90
2023/04/27 00:19:54;;;;;;;2.65;0.60;;;2.40;99.90;;;;;;4935274;29;20031;-87
2023/04/27 00:22:20;;;;;;;2.53;0.50;;;2.40;99.90;;;;;;4953077;28;20059;-90
2023/04/27 00:24:45;;;;;;;2.97;0.50;;;2.40;99.90;;;;;;4937281;29;20028;-89
2023/04/27 00:27:12;;;;;;;3.80;0.60;;;2.30;99.90;;;;;;4953993;29;20030;-90
2023/04/27 00:29:41;;;;;;;1.77;0.55;;;2.30;99.90;;;;;;4935065;29;20118;-87
2023/04/27 00:32:11;;;;;;;1.47;0.50;;;2.20;99.90;;;;;;4949353;29;20059;-90
2023/04/27 00:34:37;;;;;;;1.60;0.57;;;2.20;99.90;;;;;;4952783;29;20073;-90
2023/04/27 00:37:05;;;;;;;1.92;0.55;;;2.20;99.90;;;;;;4941850;29;20039;-86
2023/04/27 00:39:33;;;;;;;2.38;0.57;;;2.10;99.90;;;;;;4960290;28;20117;-89
2023/04/27 00:41:59;;;;;;;1.52;0.57;;;2.10;99.90;;;;;;4933447;29;20432;-89
2023/04/27 00:44:26;;;;;;;2.13;0.60;;;2.10;99.90;;;;;;4936750;29;20075;-90
2023/04/27 00:46:53;;;;;;;1.60;0.60;;;2.10;99.90;;;;;;4951701;29;20071;-87
2023/04/27 00:49:19;;;;;;;1.65;0.50;;;2.10;99.90;;;;;;4948643;29;20051;-88
2023/04/27 00:51:47;;;;;;;1.98;0.50;;;2.10;99.90;;;;;;4937022;29;20559;-90
2023/04/27 00:54:19;;;;;;;2.45;0.55;;;2.10;99.90;;;;;;4932479;29;20034;-89
2023/04/27 00:56:48;;;;;;;2.17;0.60;;;2.00;99.90;;;;;;4952218;29;20121;-87
2023/04/27 00:59:14;;;;;;;1.20;0.40;;;2.00;99.90;;;;;;4931951;29;20035;-89
2023/04/27 01:01:40;;;;;;;1.70;0.60;;;1.90;99.90;;;;;;4950603;29;20472;-87
2023/04/27 01:04:06;;;;;;;2.28;0.50;;;2.00;99.90;;;;;;4952593;29;20030;-82
2023/04/27 01:06:31;;;;;;;2.13;0.60;;;1.90;99.90;;;;;;4960506;28;20528;-82
2023/04/27 01:08:57;;;;;;;1.30;0.47;;;1.90;99.90;;;;;;4941145;29;20745;-89
2023/04/27 01:11:23;;;;;;;1.45;0.50;;;1.80;99.90;;;;;;4949978;28;20070;-84
2023/04/27 01:13:49;;;;;;;1.40;0.52;;;1.90;99.90;;;;;;4948115;28;20027;-83
2023/04/27 01:16:17;;;;;;;1.77;0.52;;;1.90;99.90;;;;;;4946754;29;20148;-82
2023/04/27 01:18:43;;;;;;;1.50;0.70;;;1.80;99.90;;;;;;4951991;28;20031;-84
2023/04/27 01:21:09;;;;;;;1.67;0.52;;;1.70;99.90;;;;;;4951883;29;20391;-82
2023/04/27 01:23:35;;;;;;;1.55;0.60;;;1.70;99.90;;;;;;4952113;29;20035;-83
2023/04/27 01:26:00;;;;;;;2.40;0.60;;;1.70;99.90;;;;;;4951842;29;20542;-87
2023/04/27 01:28:30;;;;;;;1.88;0.60;;;1.60;99.90;;;;;;4951589;28;20023;-84
2023/04/27 01:30:55;;;;;;;2.35;0.50;;;1.60;99.90;;;;;;4933779;29;20028;-82
2023/04/27 01:33:24;;;;;;;2.35;0.60;;;1.60;99.90;;;;;;4948733;28;20031;-83
2023/04/27 01:35:50;;;;;;;1.60;0.60;;;1.50;99.90;;;;;;4934185;29;20039;-83
2023/04/27 01:38:16;;;;;;;2.53;0.60;;;1.50;99.90;;;;;;4950681;29;20035;-82
2023/04/27 01:40:46;;;;;;;1.48;0.52;;;1.50;99.90;;;;;;4951494;29;20065;-89
2023/04/27 01:43:12;;;;;;;2.17;0.60;;;1.50;99.90;;;;;;4947565;28;20038;-90
2023/04/27 01:45:37;;;;;;;1.35;0.50;;;1.50;99.90;;;;;;4933249;29;20055;-83
2023/04/27 01:48:03;;;;;;;1.60;0.50;;;1.50;99.90;;;;;;4949673;29;20037;-89
2023/04/27 01:50:29;;;;;;;2.10;0.52;;;1.40;99.90;;;;;;4963770;28;20082;-89
2023/04/27 01:52:55;;;;;;;1.92;0.70;;;1.40;99.90;;;;;;4952688;29;20105;-90
2023/04/27 01:55:20;;;;;;;1.90;0.63;;;1.40;99.90;;;;;;4951482;29;20055;-89
2023/04/27 01:57:46;;;;;;;2.60;0.75;;;1.30;99.90;;;;;;4947221;29;20066;-89
2023/04/27 02:00:12;;;;;;;2.22;0.60;;;1.30;99.90;;;;;;4950774;29;20061;-90
2023/04/27 02:02:49;;;;;;;2.10;0.70;;;1.30;99.90;;;;;;4946548;29;20138;-90
2023/04/27 02:05:15;;;;;;;1.55;0.60;;;1.20;99.90;;;;;;4965253;28;20054;-90
2023/04/27 02:07:41;;;;;;;2.55;0.60;;;1.20;99.90;;;;;;4951039;29;20035;-83
2023/04/27 02:10:07;;;;;;;3.20;0.70;;;1.40;99.90;;;;;;4937463;29;20024;-91
2023/04/27 02:12:33;;;;;;;1.50;0.50;;;1.40;99.90;;;;;;4933910;29;20035;-83
2023/04/27 02:14:58;;;;;;;2.03;0.68;;;1.30;99.90;;;;;;4937866;29;20043;-88
2023/04/27 02:17:24;;;;;;;1.60;0.60;;;1.30;99.90;;;;;;4931373;29;20106;-89
2023/04/27 02:19:50;;;;;;;2.78;0.70;;;1.30;99.90;;;;;;4949967;28;20023;-89
2023/04/27 02:22:16;;;;;;;2.35;0.60;;;1.10;99.90;;;;;;4948410;28;20027;-90
2023/04/27 02:24:41;;;;;;;1.90;0.70;;;1.10;99.90;;;;;;4951728;28;20038;-90
2023/04/27 02:27:07;;;;;;;3.53;0.80;;;1.10;99.90;;;;;;4947750;29;20035;-84
2023/04/27 02:29:36;;;;;;;3.45;0.70;;;1.10;99.90;;;;;;4948661;29;20023;-83
2023/04/27 02:32:02;;;;;;;1.80;0.67;;;1.00;99.90;;;;;;4947901;29;20034;-84
2023/04/27 02:34:28;;;;;;;1.90;0.77;;;1.00;99.90;;;;;;4928618;29;20027;-82
2023/04/27 02:36:53;;;;;;;2.03;0.80;;;0.90;99.90;;;;;;4951767;28;20187;-85
2023/04/27 02:39:19;;;;;;;1.88;0.60;;;1.00;99.90;;;;;;4930851;29;20082;-84
2023/04/27 02:41:45;;;;;;;2.08;0.63;;;0.90;99.90;;;;;;4949854;29;20067;-82
2023/04/27 02:44:11;;;;;;;2.00;0.70;;;0.90;99.90;;;;;;4957303;28;20042;-81
2023/04/27 02:46:36;;;;;;;3.35;0.90;;;0.90;99.90;;;;;;4934572;28;20476;-84
2023/04/27 02:49:02;;;;;;;1.77;0.90;;;0.80;99.90;;;;;;4969639;28;20031;-85
2023/04/27 02:51:28;;;;;;;3.78;0.80;;;0.80;99.90;;;;;;4953648;28;20391;-83
2023/04/27 02:53:55;;;;;;;3.10;1.05;;;0.80;99.90;;;;;;4950495;28;20027;-82
2023/04/27 02:56:20;;;;;;;2.53;0.77;;;0.70;99.90;;;;;;4953831;28;20380;-84
2023/04/27 02:58:46;;;;;;;3.25;0.70;;;0.60;99.90;;;;;;4952990;28;20042;-83
2023/04/27 03:01:14;;;;;;;3.20;0.80;;;0.70;99.90;;;;;;4953688;28;20041;-83
2023/04/27 03:03:40;;;;;;;1.88;0.50;;;0.60;99.90;;;;;;4945294;28;20023;-89
2023/04/27 03:06:06;;;;;;;1.65;0.70;;;0.70;99.90;;;;;;4961644;28;20368;-82
2023/04/27 03:08:31;;;;;;;1.70;0.60;;;0.70;99.90;;;;;;4949634;28;20104;-83
2023/04/27 03:10:57;;;;;;;2.70;0.68;;;0.80;99.90;;;;;;4970815;28;20105;-82
2023/04/27 03:13:23;;;;;;;2.10;0.77;;;0.70;99.90;;;;;;4970024;28;20471;-89
2023/04/27 03:15:48;;;;;;;2.10;0.80;;;0.60;99.90;;;;;;4935583;28;20030;-90
2023/04/27 03:18:14;;;;;;;2.47;0.70;;;0.60;99.90;;;;;;4963509;28;20407;-89
2023/04/27 03:20:40;;;;;;;2.42;0.73;;;0.50;99.90;;;;;;4951137;28;20500;-88
2023/04/27 03:23:05;;;;;;;2.25;0.55;;;0.50;99.90;;;;;;4953413;28;20096;-87
2023/04/27 03:25:31;;;;;;;1.83;0.60;;;0.60;99.90;;;;;;4953998;28;20030;-90
2023/04/27 03:27:57;;;;;;;1.92;0.60;;;0.60;99.90;;;;;;4952944;28;20043;-83
2023/04/27 03:30:22;;;;;;;2.70;0.77;;;0.60;99.90;;;;;;4953488;28;20026;-90
2023/04/27 03:32:48;;;;;;;1.83;0.60;;;0.50;99.90;;;;;;4968865;28;20039;-90
2023/04/27 03:35:14;;;;;;;2.70;0.80;;;0.40;99.90;;;;;;4937349;28;20023;-88
2023/04/27 03:37:40;;;;;;;2.75;0.60;;;0.40;99.90;;;;;;4949764;28;20231;-90
2023/04/27 03:40:06;;;;;;;2.13;0.60;;;0.50;99.90;;;;;;4933438;28;20186;-88
2023/04/27 03:42:32;;;;;;;1.95;0.73;;;0.50;99.90;;;;;;4952129;28;20069;-90
2023/04/27 03:44:57;;;;;;;1.42;0.50;;;0.50;99.90;;;;;;4933812;28;20510;-88
2023/04/27 03:47:23;;;;;;;1.92;0.63;;;0.50;99.90;;;;;;4970260;28;20518;-90
2023/04/27 03:49:49;;;;;;;3.30;0.98;;;0.60;99.90;;;;;;4937060;28;20025;-82
2023/04/27 03:52:15;;;;;;;1.63;0.50;;;0.50;99.90;;;;;;4950547;28;20039;-84
2023/04/27 03:54:40;;;;;;;2.15;0.60;;;0.40;99.90;;;;;;4952688;28;20023;-85
2023/04/27 03:57:06;;;;;;;2.28;0.50;;;0.50;99.90;;;;;;4933768;28;20443;-82
2023/04/27 03:59:32;;;;;;;2.13;0.70;;;0.50;99.90;;;;;;4952743;28;20440;-82
2023/04/27 04:01:57;;;;;;;1.85;0.60;;;0.50;99.90;;;;;;4953434;28;20535;-83
2023/04/27 04:04:23;;;;;;;2.08;0.60;;;0.40;99.90;;;;;;4949706;28;20407;-83
2023/04/27 04:06:49;;;;;;;1.40;0.60;;;0.30;99.90;;;;;;4933746;28;20388;-82
2023/04/27 04:09:15;;;;;;;1.92;0.73;;;0.20;99.90;;;;;;4952685;28;20026;-82
2023/04/27 04:11:42;;;;;;;2.08;0.80;;;0.10;99.90;;;;;;4936858;28;20122;-83
2023/04/27 04:14:11;;;;;;;2.58;0.88;;;0.20;99.90;;;;;;4952684;28;20072;-83
2023/04/27 04:16:36;;;;;;;1.50;0.50;;;0.20;99.90;;;;;;4951917;28;20047;-82
2023/04/27 04:19:02;;;;;;;2.50;0.60;;;0.10;99.90;;;;;;4954559;28;20031;-83
2023/04/27 04:21:28;;;;;;;2.40;0.80;;;0.10;99.90;;;;;;4968274;28;20031;-85
2023/04/27 04:23:53;;;;;;;2.08;0.77;;;0.10;99.90;;;;;;4955220;28;20027;-86
2023/04/27 04:26:19;;;;;;;2.97;0.80;;;0.10;99.90;;;;;;4951988;28;20379;-83
2023/04/27 04:28:48;;;;;;;1.85;0.70;;;0.10;99.90;;;;;;4936099;28;20506;-83
2023/04/27 04:31:16;;;;;;;2.63;0.60;;;0.30;99.90;;;;;;4932064;28;20101;-85
2023/04/27 04:33:42;;;;;;;2.13;0.70;;;0.40;99.90;;;;;;4951630;28;20435;-82
2023/04/27 04:36:07;;;;;;;1.48;0.50;;;0.30;99.90;;;;;;4949727;28;20030;-83
2023/04/27 04:38:33;;;;;;;1.73;0.70;;;0.20;99.90;;;;;;4948880;28;20043;-88
2023/04/27 04:40:59;;;;;;;2.17;0.70;;;0.30;99.90;;;;;;4950817;28;20029;-85
2023/04/27 04:43:25;;;;;;;2.13;0.68;;;0.30;99.90;;;;;;4951980;28;20022;-84
2023/04/27 04:45:51;;;;;;;2.58;0.77;;;0.30;99.90;;;;;;4934853;28;20043;-83
2023/04/27 04:48:18;;;;;;;1.60;0.60;;;0.40;99.90;;;;;;4939586;28;20026;-90
2023/04/27 04:50:44;;;;;;;1.75;0.60;;;0.40;99.90;;;;;;4955826;28;20027;-90
2023/04/27 04:53:11;;;;;;;1.55;0.70;;;0.50;99.90;;;;;;4937653;28;20026;-88
2023/04/27 04:55:37;;;;;;;1.88;0.70;;;0.60;99.90;;;;;;4952072;28;20147;-90
2023/04/27 04:58:03;;;;;;;2.08;0.80;;;0.50;99.90;;;;;;4937234;28;20062;-84
2023/04/27 05:00:29;;;;;;;2.08;0.60;;;0.50;99.90;;;;;;4937767;28;20065;-90
2023/04/27 05:02:55;;;;;;;2.20;0.57;;;0.60;99.90;;;;;;4954839;28;20061;-89
2023/04/27 05:05:20;;;;;;;2.92;0.68;;;0.70;99.90;;;;;;4935455;28;20056;-88
2023/04/27 05:07:46;;;;;;;2.63;0.60;;;0.70;99.90;;;;;;4940335;28;20453;-86
2023/04/27 05:10:12;;;;;;;1.90;0.70;;;0.70;99.90;;;;;;4939108;28;20050;-90
2023/04/27 05:12:37;;;;;;;2.88;0.50;;;0.80;99.90;;;;;;4973273;28;20029;-83
2023/04/27 05:15:04;;;;;;;2.28;0.60;;;1.00;99.90;;;;;;4939346;28;20566;-82
2023/04/27 05:17:30;;;;;;;1.85;0.60;;;0.90;99.90;;;;;;4955172;28;20045;-83
2023/04/27 05:19:56;;;;;;;1.52;0.50;;;1.00;99.90;;;;;;4953136;28;20115;-84
2023/04/27 05:22:22;;;;;;;1.45;0.60;;;1.00;99.90;;;;;;4954875;28;20529;-83
2023/04/27 05:24:47;;;;;;;2.13;0.73;;;1.00;99.90;;;;;;4952816;28;20114;-83
2023/04/27 05:27:16;;;;;;;1.75;0.60;;;1.10;99.90;;;;;;4938394;28;20435;-87
2023/04/27 05:29:41;;;;;;;1.80;0.70;;;1.30;99.90;;;;;;4951917;28;20039;-83
2023/04/27 05:32:08;;;;;;;1.63;0.55;;;1.40;99.90;;;;;;4950384;28;20375;-83
2023/04/27 05:34:34;;;;;;;2.00;0.70;;;1.40;99.90;;;;;;4953583;28;20027;-87
2023/04/27 05:37:00;;;;;;;2.30;0.75;;;1.60;99.90;;;;;;4954168;28;20045;-83
2023/04/27 05:39:26;;;;;;;2.30;0.60;;;1.70;99.90;;;;;;4954554;28;20023;-90
2023/04/27 05:41:52;;;;;;;1.63;0.57;;;1.70;99.90;;;;;;4953953;28;20027;-82
2023/04/27 05:44:18;;;;;;;1.98;0.77;;;1.80;99.90;;;;;;4935746;28;20055;-85
2023/04/27 05:46:44;;;;;;;5.10;0.70;;;1.90;99.90;;;;;;4954078;28;20034;-87
2023/04/27 05:49:09;;;;;;;2.92;0.65;;;2.00;99.90;;;;;;4954710;28;20387;-85
2023/04/27 05:51:37;;;;;;;2.15;0.65;;;2.10;99.90;;;;;;4953939;28;20499;-83
2023/04/27 05:54:02;;;;;;;1.63;0.60;;;2.20;99.90;;;;;;4937124;28;20097;-82
2023/04/27 05:56:28;;;;;;;1.70;0.50;;;2.20;99.90;;;;;;4933193;28;20488;-84
2023/04/27 05:58:54;;;;;;;1.83;0.50;;;2.30;99.90;;;;;;4948604;28;20027;-84
2023/04/27 06:01:20;;;;;;;1.77;0.50;;;2.50;99.90;;;;;;4953236;28;20031;-83
2023/04/27 06:03:46;;;;;;;2.42;0.60;;;2.60;99.90;;;;;;4952678;28;20027;-82
2023/04/27 06:06:11;;;;;;;1.90;0.50;;;2.90;99.90;;;;;;4949709;28;20037;-83
2023/04/27 06:08:38;;;;;;;3.13;0.43;;;3.00;99.90;;;;;;4937252;28;20034;-83
2023/04/27 06:11:04;;;;;;;3.05;0.52;;;3.20;99.90;;;;;;4938269;28;20031;-83
2023/04/27 06:13:31;;;;;;;1.95;0.47;;;3.50;99.90;;;;;;4934517;28;20042;-84
2023/04/27 06:15:57;;;;;;;2.50;0.60;;;3.70;99.90;;;;;;4952722;28;20034;-82
2023/04/27 06:18:23;;;;;;;1.67;0.60;;;3.90;99.90;;;;;;4951070;28;20038;-82
2023/04/27 06:20:49;;;;;;;1.80;0.55;;;4.10;99.90;;;;;;4970205;28;20030;-89
2023/04/27 06:23:15;;;;;;;1.50;0.50;;;4.30;99.90;;;;;;4952866;28;20026;-90
2023/04/27 06:25:40;;;;;;;1.77;0.60;;;4.50;99.90;;;;;;4969771;28;20098;-89
2023/04/27 06:28:06;;;;;;;1.42;0.60;;;4.80;99.90;;;;;;4951849;28;20110;-92
2023/04/27 06:30:32;;;;;;;1.75;0.52;;;4.90;99.90;;;;;;4953348;28;20023;-93
2023/04/27 06:32:57;;;;;;;2.75;0.47;;;5.20;99.90;;;;;;4953765;28;20019;-92
2023/04/27 06:35:23;;;;;;;3.85;0.80;;;5.50;99.90;;;;;;4963817;28;20043;-84
2023/04/27 06:37:48;;;;;;;2.58;0.55;;;5.80;99.90;;;;;;4934132;28;20558;-85
2023/04/27 06:40:14;;;;;;;1.40;0.50;;;6.00;99.90;;;;;;4970660;28;20106;-82
2023/04/27 06:42:40;;;;;;;2.60;0.50;;;6.30;99.90;;;;;;4936733;28;20038;-83
2023/04/27 06:45:06;;;;;;;2.53;0.40;;;6.50;99.90;;;;;;4949230;28;20118;-84
2023/04/27 06:47:32;;;;;;;2.30;0.50;;;6.70;99.90;;;;;;4970237;28;20081;-86
2023/04/27 06:49:57;;;;;;;3.10;0.60;;;6.90;99.90;;;;;;4969072;28;20456;-82
2023/04/27 06:52:23;;;;;;;1.20;0.40;;;7.10;99.90;;;;;;4949883;28;20041;-89
2023/04/27 06:54:49;;;;;;;2.38;0.70;;;7.30;99.90;;;;;;4936880;28;20035;-86
2023/04/27 06:57:14;;;;;;;2.30;0.50;;;7.40;99.90;;;;;;4935047;28;20039;-82
2023/04/27 06:59:43;;;;;;;2.25;0.50;;;7.50;99.90;;;;;;4934121;28;20054;-82
2023/04/27 07:02:08;;;;;;;3.78;0.45;;;7.60;99.90;;;;;;4953241;28;20289;-82
2023/04/27 07:04:35;;;;;;;1.40;0.40;;;7.70;99.90;;;;;;4929325;28;20033;-89
2023/04/27 07:07:01;;;;;;;2.88;0.40;;;7.90;99.90;;;;;;4969986;28;20495;-82
2023/04/27 07:09:27;;;;;;;1.35;0.40;;;8.20;99.90;;;;;;4932602;28;20037;-82
2023/04/27 07:11:53;;;;;;;1.02;0.40;;;8.30;99.90;;;;;;4952331;28;20109;-88
2023/04/27 07:14:19;;;;;;;1.00;0.35;;;8.50;99.90;;;;;;4969038;28;20046;-82
2023/04/27 07:16:47;;;;;;;1.33;0.40;;;8.50;99.90;;;;;;4939922;28;20476;-82
2023/04/27 07:19:12;;;;;;;1.42;0.30;;;8.50;99.90;;;;;;4970383;28;20035;-90
2023/04/27 07:21:38;;;;;;;1.40;0.30;;;8.70;99.90;;;;;;4953530;28;20089;-85
2023/04/27 07:24:04;;;;;;;2.05;0.30;;;8.80;99.90;;;;;;4940772;28;20027;-82
2023/04/27 07:26:30;;;;;;;1.70;0.47;;;9.00;99.90;;;;;;4955155;28;20034;-81
2023/04/27 07:28:56;;;;;;;1.98;0.40;;;9.20;99.90;;;;;;4954042;28;20027;-89
2023/04/27 07:31:22;;;;;;;0.77;0.30;;;9.30;99.90;;;;;;4969180;28;20034;-81
2023/04/27 07:33:48;;;;;;;2.22;0.60;;;9.40;99.90;;;;;;4952712;28;20038;-83
2023/04/27 07:36:13;;;;;;;1.75;0.35;;;9.40;99.90;;;;;;4935750;28;20019;-82
2023/04/27 07:38:39;;;;;;;2.10;0.40;;;9.50;99.90;;;;;;4950706;28;20125;-85
2023/04/27 07:41:05;;;;;;;0.90;0.30;;;9.60;99.90;;;;;;4934719;28;20112;-89
2023/04/27 07:43:31;;;;;;;1.10;0.30;;;9.90;99.90;;;;;;4968436;28;20145;-80
2023/04/27 07:45:57;;;;;;;2.80;0.75;;;10.00;99.90;;;;;;4935333;28;20113;-80
2023/04/27 07:48:23;;;;;;;0.90;0.30;;;10.00;99.90;;;;;;4970207;28;20070;-90
2023/04/27 07:50:49;;;;;;;0.88;0.30;;;10.00;99.90;;;;;;4969017;28;20554;-84
2023/04/27 07:53:15;;;;;;;1.00;0.30;;;10.20;99.90;;;;;;4953175;28;20031;-83
2023/04/27 07:55:43;;;;;;;1.00;0.30;;;10.40;99.90;;;;;;4940073;28;20703;-83
2023/04/27 07:58:09;;;;;;;1.23;0.30;;;10.40;99.90;;;;;;4925037;28;20061;-84
2023/04/27 08:00:36;;;;;;;1.40;0.20;;;10.60;99.90;;;;;;4925936;28;20027;-81
2023/04/27 08:03:02;;;;;;;2.58;0.30;;;10.70;99.90;;;;;;4943321;28;20046;-81
2023/04/27 08:05:28;;;;;;;1.27;0.30;;;10.90;99.90;;;;;;4940750;28;20031;-80
2023/04/27 08:07:54;;;;;;;0.90;0.30;;;10.70;99.90;;;;;;4942798;28;20510;-81
2023/04/27 08:10:20;;;;;;;2.58;0.28;;;10.70;99.90;;;;;;4940632;28;20075;-80
2023/04/27 08:12:45;;;;;;;1.02;0.30;;;10.80;99.90;;;;;;4944528;28;20035;-87
2023/04/27 08:15:11;;;;;;;0.73;0.25;;;10.70;99.90;;;;;;4951698;28;20035;-81
2023/04/27 08:17:40;;;;;;;1.48;0.30;;;10.70;99.90;;;;;;4925975;28;20053;-80
2023/04/27 08:20:12;;;;;;;0.90;0.30;;;11.10;99.90;;;;;;4940658;28;20039;-80
2023/04/27 08:22:39;;;;;;;3.85;0.38;;;11.20;99.90;;;;;;4937381;28;20022;-81
2023/04/27 08:25:07;;;;;;;0.90;0.28;;;11.20;99.90;;;;;;4963192;28;20034;-80
2023/04/27 08:27:36;;;;;;;0.88;0.30;;;11.50;99.90;;;;;;4929135;28;20035;-81
2023/04/27 08:30:02;;;;;;;1.65;0.30;;;11.70;99.90;;;;;;4943943;28;20456;-79
2023/04/27 08:32:28;;;;;;;2.33;0.30;;;11.60;99.90;;;;;;4949820;28;20093;-82
2023/04/27 08:34:54;;;;;;;1.60;0.30;;;11.60;99.90;;;;;;4973297;28;20035;-82
2023/04/27 08:37:19;;;;;;;0.80;0.20;;;11.70;99.90;;;;;;4969343;28;20042;-83
2023/04/27 08:39:47;;;;;;;1.38;0.30;;;11.70;99.90;;;;;;4970104;28;20160;-80
2023/04/27 08:42:13;;;;;;;1.85;0.30;;;11.90;99.90;;;;;;4938805;28;20031;-82
2023/04/27 08:44:40;;;;;;;1.05;0.30;;;11.70;99.90;;;;;;4948593;29;20047;-82
2023/04/27 08:47:06;;;;;;;1.42;0.30;;;12.00;99.90;;;;;;4949649;29;20295;-82
2023/04/27 08:49:32;;;;;;;1.38;0.32;;;12.10;99.90;;;;;;4965880;28;20046;-83
2023/04/27 08:51:57;;;;;;;1.10;0.30;;;11.60;99.90;;;;;;4962906;28;20370;-82
2023/04/27 08:54:23;;;;;;;0.57;0.20;;;11.60;99.90;;;;;;4950830;28;20084;-82
2023/04/27 08:56:49;;;;;;;2.05;0.20;;;11.70;99.90;;;;;;4931784;29;20035;-83
2023/04/27 08:59:15;;;;;;;0.95;0.30;;;11.90;99.90;;;;;;4940203;29;20480;-83
2023/04/27 09:01:48;;;;;;;0.95;0.25;;;11.70;99.90;;;;;;4946666;29;20106;-82
2023/04/27 09:04:15;;;;;;;0.73;0.20;;;11.90;99.90;;;;;;4962947;28;20028;-82
2023/04/27 09:06:40;;;;;;;1.48;0.30;;;12.00;99.90;;;;;;4950369;29;20027;-86
2023/04/27 09:09:06;;;;;;;0.82;0.30;;;12.00;99.90;;;;;;4947070;28;20408;-83
2023/04/27 09:11:37;;;;;;;0.88;0.30;;;12.10;99.90;;;;;;4943903;29;20027;-83
2023/04/27 09:14:18;;;;;;;0.90;0.30;;;12.00;99.90;;;;;;4943275;29;20027;-82
2023/04/27 09:16:44;;;;;;;1.33;0.32;;;12.20;99.90;;;;;;4947078;29;20448;-83
2023/04/27 09:19:10;;;;;;;1.10;0.30;;;12.30;99.90;;;;;;4944000;28;20058;-82
2023/04/27 09:21:36;;;;;;;0.80;0.30;;;12.30;99.90;;;;;;4946971;28;20591;-82
2023/04/27 09:24:12;;;;;;;1.48;0.40;;;12.50;99.90;;;;;;4938233;29;20066;-83
2023/04/27 09:26:38;;;;;;;0.95;0.30;;;12.30;99.90;;;;;;4947821;29;20027;-83
2023/04/27 09:29:04;;;;;;;0.90;0.30;;;12.40;99.90;;;;;;4943174;29;20368;-80
2023/04/27 09:31:34;;;;;;;1.02;0.30;;;12.60;99.90;;;;;;4946525;28;20042;-80
2023/04/27 09:34:01;;;;;;;1.73;0.28;;;12.50;99.90;;;;;;4948960;29;20031;-81
2023/04/27 09:36:27;;;;;;;0.93;0.32;;;12.80;99.90;;;;;;4932903;29;20039;-81
2023/04/27 09:38:52;;;;;;;1.85;0.40;;;12.60;99.90;;;;;;4941778;29;20035;-82
2023/04/27 09:41:19;;;;;;;1.88;0.30;;;12.60;99.90;;;;;;4936046;29;20046;-81
2023/04/27 09:43:46;;;;;;;1.13;0.40;;;12.70;99.90;;;;;;4942806;28;20123;-81
2023/04/27 09:46:13;;;;;;;1.48;0.30;;;12.60;99.90;;;;;;4951865;28;20532;-81
2023/04/27 09:48:39;;;;;;;1.15;0.20;;;12.60;99.90;;;;;;4948227;28;20450;-79
2023/04/27 09:51:05;;;;;;;0.63;0.20;;;12.50;99.90;;;;;;4950430;28;20023;-80
2023/04/27 09:53:50;;;;;;;1.38;0.30;;;12.70;99.90;;;;;;4966137;28;20436;-80
2023/04/27 09:56:45;;;;;;;0.73;0.20;;;12.80;99.90;;;;;;4967089;28;20034;-83
2023/04/27 09:59:22;;;;;;;1.17;0.20;;;13.10;99.90;;;;;;4931826;28;20038;-83
2023/04/27 10:01:53;;;;;;;1.05;0.30;;;13.50;99.90;;;;;;4939772;28;20563;-82
2023/04/27 10:04:37;;;;;;;0.98;0.30;;;13.60;99.90;;;;;;4965957;28;20039;-84
2023/04/27 10:07:06;;;;;;;0.65;0.20;;;13.20;99.90;;;;;;4948290;28;20027;-83
2023/04/27 10:09:45;;;;;;;0.70;0.30;;;13.60;99.90;;;;;;4965372;28;20113;-81
2023/04/27 10:12:31;;;;;;;0.90;0.30;;;13.60;99.90;;;;;;4963469;28;20031;-81
2023/04/27 10:14:59;;;;;;;1.35;0.20;;;13.70;99.90;;;;;;4966265;28;21589;-86
2023/04/27 10:17:35;;;;;;;0.70;0.28;;;13.80;99.90;;;;;;4949673;28;20054;-82
2023/04/27 10:20:03;;;;;;;0.85;0.30;;;13.80;99.90;;;;;;4945067;28;20467;-83
2023/04/27 10:22:42;;;;;;;1.33;0.30;;;13.60;99.90;;;;;;4967319;28;20042;-85
2023/04/27 10:25:28;;;;;;;1.40;0.40;;;13.60;99.90;;;;;;4934402;28;20419;-84
2023/04/27 10:28:00;;;;;;;1.27;0.30;;;13.60;99.90;;;;;;4944682;28;20352;-83
2023/04/27 10:30:31;;;;;;;1.70;0.40;;;13.60;99.90;;;;;;4966719;28;20030;-83
2023/04/27 10:32:58;;;;;;;2.28;0.40;;;13.60;99.90;;;;;;4944253;28;21614;-81
2023/04/27 10:35:44;;;;;;;2.55;0.38;;;14.00;99.90;;;;;;4966698;28;20027;-85
2023/04/27 10:38:20;;;;;;;1.80;0.32;;;14.20;99.90;;;;;;4947616;28;20452;-84
2023/04/27 10:40:55;;;;;;;1.65;0.30;;;14.10;99.90;;;;;;4943809;28;20031;-83
2023/04/27 10:43:25;;;;;;;1.08;0.20;;;14.50;99.90;;;;;;4949297;28;20458;-83
2023/04/27 10:45:54;;;;;;;1.23;0.30;;;14.30;99.90;;;;;;4948344;28;20488;-87
2023/04/27 10:48:21;;;;;;;1.00;0.30;;;14.40;99.90;;;;;;4932065;28;20177;-84
2023/04/27 10:50:49;;;;;;;1.10;0.40;;;14.30;99.90;;;;;;4965412;28;20073;-84
2023/04/27 10:53:16;;;;;;;2.88;0.40;;;14.60;99.90;;;;;;4949425;28;20029;-83
2023/04/27 10:55:42;;;;;;;1.77;0.50;;;14.40;99.90;;;;;;4942480;28;20399;-86
2023/04/27 10:58:07;;;;;;;1.95;0.45;;;14.60;99.90;;;;;;4950350;28;20122;-84
2023/04/27 11:00:36;;;;;;;1.33;0.40;;;14.30;99.90;;;;;;4949921;28;20443;-83
2023/04/27 11:03:15;;;;;;;1.65;0.50;;;14.40;99.90;;;;;;4949449;28;20030;-82
2023/04/27 11:05:43;;;;;;;1.33;0.45;;;14.30;99.90;;;;;;4948539;28;20031;-82
2023/04/27 11:08:11;;;;;;;1.60;0.40;;;14.00;99.90;;;;;;4944346;28;20041;-82
2023/04/27 11:10:40;;;;;;;0.82;0.40;;;14.00;99.90;;;;;;4965974;28;20085;-83
2023/04/27 11:13:08;;;;;;;1.60;0.40;;;14.30;99.90;;;;;;4949481;28;20038;-80
2023/04/27 11:15:54;;;;;;;0.93;0.40;;;14.70;99.90;;;;;;4942154;28;20562;-83
2023/04/27 11:18:23;;;;;;;1.95;0.50;;;14.60;99.90;;;;;;4930947;28;20141;-82
2023/04/27 11:20:51;;;;;;;1.10;0.40;;;14.70;99.90;;;;;;4948749;28;20061;-83
2023/04/27 11:23:27;;;;;;;0.88;0.40;;;14.70;99.90;;;;;;4947392;28;20096;-83
2023/04/27 11:25:54;;;;;;;1.77;0.50;;;14.40;99.90;;;;;;4946256;28;20027;-82
2023/04/27 11:28:21;;;;;;;1.23;0.43;;;14.20;99.90;;;;;;4949305;28;20501;-81
2023/04/27 11:30:58;;;;;;;1.95;0.40;;;14.60;99.90;;;;;;4947906;28;20049;-83
2023/04/27 11:33:24;;;;;;;1.48;0.40;;;14.60;99.90;;;;;;4966287;28;20090;-83
2023/04/27 11:35:49;;;;;;;1.45;0.40;;;14.90;99.90;;;;;;4951443;28;20018;-82
2023/04/27 11:38:26;;;;;;;1.17;0.43;;;15.10;99.90;;;;;;4928189;28;20070;-93
2023/04/27 11:41:05;;;;;;;1.17;0.38;;;14.70;99.90;;;;;;4932019;28;20050;-91
2023/04/27 11:43:32;;;;;;;1.17;0.30;;;14.80;99.10;;;;;;4946349;28;20077;-83
2023/04/27 11:46:02;;;;;;;2.38;0.40;;;14.60;99.90;;;;;;4967566;28;21600;-82
2023/04/27 11:48:28;;;;;;;1.25;0.47;;;14.60;99.90;;;;;;4966326;28;20034;-85
2023/04/27 11:50:57;;;;;;;1.45;0.40;;;14.80;99.90;;;;;;4966713;28;20533;-82
2023/04/27 11:53:33;;;;;;;0.93;0.30;;;14.90;99.90;;;;;;4985114;28;20407;-82
2023/04/27 11:56:01;;;;;;;1.67;0.40;;;15.30;99.90;;;;;;4986393;28;20049;-81
2023/04/27 11:58:30;;;;;;;1.45;0.40;;;15.00;99.90;;;;;;4988524;28;20104;-83
2023/04/27 12:00:56;;;;;;;0.87;0.30;;;14.90;99.90;;;;;;4965078;28;20026;-82
2023/04/27 12:03:22;;;;;;;3.35;0.52;;;15.00;99.90;;;;;;4987351;28;20057;-81
2023/04/27 12:05:49;;;;;;;1.23;0.40;;;14.80;99.90;;;;;;4987385;28;20030;-88
2023/04/27 12:08:19;;;;;;;0.70;0.35;;;15.10;99.90;;;;;;4969240;28;20399;-84
2023/04/27 12:10:45;;;;;;;0.90;0.30;;;15.30;99.90;;;;;;4970569;28;20076;-81
2023/04/27 12:13:11;;;;;;;1.00;0.30;;;15.10;99.10;;;;;;4987617;28;20039;-82
2023/04/27 12:15:37;;;;;;;1.05;0.30;;;14.90;99.50;;;;;;4954219;28;20463;-82
2023/04/27 12:18:03;;;;;;;0.82;0.20;;;14.90;99.80;;;;;;4989170;28;20057;-81
2023/04/27 12:20:29;;;;;;;1.63;0.28;;;15.00;99.90;;;;;;4971323;28;20487;-83
2023/04/27 12:22:56;;;;;;;1.23;0.30;;;15.20;99.90;;;;;;4963129;28;20135;-84
2023/04/27 12:25:22;;;;;;;1.08;0.40;;;15.30;99.70;;;;;;4971778;28;20022;-81
2023/04/27 12:27:48;;;;;;;1.27;0.40;;;15.30;98.70;;;;;;4970804;28;20034;-88
2023/04/27 12:30:14;;;;;;;0.90;0.30;;;15.40;99.90;;;;;;4970666;28;20029;-81
2023/04/27 12:32:40;;;;;;;1.50;0.30;;;15.40;99.90;;;;;;4987187;28;20031;-78
2023/04/27 12:35:07;;;;;;;1.02;0.40;;;15.50;99.80;;;;;;4987271;28;20542;-80
2023/04/27 12:37:34;;;;;;;1.13;0.40;;;15.60;99.30;;;;;;4966181;28;20084;-81
2023/04/27 12:40:00;;;;;;;1.08;0.30;;;15.30;99.70;;;;;;4970608;28;20065;-80
2023/04/27 12:42:26;;;;;;;0.82;0.30;;;15.30;99.20;;;;;;4971573;28;20033;-83
2023/04/27 12:44:52;;;;;;;1.52;0.30;;;15.10;98.40;;;;;;4970858;28;20494;-82
2023/04/27 12:47:20;;;;;;;2.78;0.30;;;14.90;99.10;;;;;;4971771;28;20027;-82
2023/04/27 12:49:46;;;;;;;1.10;0.30;;;14.90;98.50;;;;;;4969197;28;20065;-83
2023/04/27 12:52:12;;;;;;;1.00;0.40;;;15.10;98.60;;;;;;4985979;28;20057;-83